Time;durP1;ratioP1;P1;durP2;ratioP2;P2;SDS_P1;SDS_P2;PMS_P1;PMS_P2;Temp;Humidity;BMP_temperature;BMP_pressure;BME280_temperature;BME280_humidity;BME280_pressure;Samples;Min_cycle;Max_cycle;Signal;HPM_P1;HPM_P2
2022/10/16 00:00:05;;;;;;;9.20;7.78;;;14.30;99.90;;;;;;6194605;23;20228;-87
2022/10/16 00:02:35;;;;;;;7.93;7.13;;;14.30;99.90;;;;;;6196473;23;20215;-87
2022/10/16 00:05:02;;;;;;;9.00;8.02;;;14.20;99.90;;;;;;6197738;23;20193;-86
2022/10/16 00:07:29;;;;;;;9.65;8.02;;;14.10;99.90;;;;;;6171151;23;20253;-87
2022/10/16 00:09:56;;;;;;;8.77;7.85;;;14.20;99.90;;;;;;6197026;23;20177;-88
2022/10/16 00:12:25;;;;;;;10.60;8.00;;;14.20;99.90;;;;;;6171477;23;20374;-87
2022/10/16 00:14:53;;;;;;;8.25;7.18;;;14.10;99.90;;;;;;6199962;23;20185;-90
2022/10/16 00:17:21;;;;;;;8.60;7.70;;;14.10;99.90;;;;;;6196559;23;20185;-91
2022/10/16 00:19:48;;;;;;;10.88;7.72;;;14.20;99.90;;;;;;6198691;23;20200;-90
2022/10/16 00:22:16;;;;;;;8.98;7.05;;;14.20;99.90;;;;;;6176623;23;20219;-90
2022/10/16 00:24:44;;;;;;;7.75;7.00;;;14.10;99.90;;;;;;6204810;23;20189;-89
2022/10/16 00:27:12;;;;;;;7.97;7.18;;;13.90;99.90;;;;;;6176302;23;20182;-87
2022/10/16 00:29:46;;;;;;;10.68;8.65;;;13.80;99.90;;;;;;6197810;23;20161;-88
2022/10/16 00:32:16;;;;;;;9.60;8.18;;;13.70;99.90;;;;;;6205051;23;20180;-89
2022/10/16 00:34:44;;;;;;;9.80;8.45;;;13.70;99.90;;;;;;6210626;23;20195;-90
2022/10/16 00:37:14;;;;;;;11.98;7.90;;;13.60;99.90;;;;;;6216422;22;20187;-86
2022/10/16 00:39:52;;;;;;;12.95;8.43;;;13.70;99.90;;;;;;6241597;22;20176;-88
2022/10/16 00:42:21;;;;;;;12.13;9.23;;;13.70;99.90;;;;;;6235782;23;20173;-88
2022/10/16 00:44:56;;;;;;;12.15;9.15;;;13.60;99.90;;;;;;6232230;23;20173;-89
2022/10/16 00:47:44;;;;;;;12.50;8.00;;;13.60;99.90;;;;;;6203618;23;20236;-86
2022/10/16 00:50:35;;;;;;;9.20;8.30;;;13.60;99.90;;;;;;6229279;23;20179;-86
2022/10/16 00:53:03;;;;;;;9.38;7.95;;;13.50;99.90;;;;;;6227026;23;20194;-87
2022/10/16 00:55:30;;;;;;;9.63;8.60;;;13.60;99.90;;;;;;6226661;23;20181;-89
2022/10/16 00:57:58;;;;;;;11.30;8.25;;;13.60;99.90;;;;;;6247241;23;20174;-88
2022/10/16 01:00:26;;;;;;;13.32;8.80;;;13.80;99.90;;;;;;6247478;23;20622;-87
2022/10/16 01:03:02;;;;;;;9.32;8.32;;;13.90;99.90;;;;;;6223946;23;20176;-86
2022/10/16 01:05:54;;;;;;;11.68;9.45;;;13.80;99.90;;;;;;6223291;23;20181;-86
2022/10/16 01:08:35;;;;;;;9.40;8.43;;;13.80;99.90;;;;;;6226108;23;20217;-89
2022/10/16 01:11:25;;;;;;;10.10;8.30;;;13.80;99.90;;;;;;6217575;23;20211;-90
2022/10/16 01:14:09;;;;;;;8.10;7.30;;;13.90;99.90;;;;;;6224747;23;20176;-89
2022/10/16 01:16:58;;;;;;;10.60;8.57;;;13.90;99.90;;;;;;6200583;23;20169;-90
2022/10/16 01:19:44;;;;;;;10.00;7.72;;;13.90;99.90;;;;;;6226158;23;20255;-88
2022/10/16 01:22:14;;;;;;;9.27;6.97;;;13.90;99.90;;;;;;6225265;23;20183;-91
2022/10/16 01:24:49;;;;;;;10.40;7.45;;;13.80;99.90;;;;;;6229354;23;20189;-90
2022/10/16 01:27:26;;;;;;;9.57;8.57;;;13.70;99.90;;;;;;6202642;23;20205;-90
2022/10/16 01:40:44;;;;;;;9.95;6.70;;;13.70;99.90;;;;;;6101697;22;356486;-91
2022/10/16 01:43:21;;;;;;;8.85;7.75;;;13.70;99.90;;;;;;6143031;23;20189;-90
2022/10/16 01:45:50;;;;;;;9.05;8.02;;;13.70;99.90;;;;;;6144878;22;20198;-88
2022/10/16 01:48:24;;;;;;;9.82;8.55;;;13.70;99.90;;;;;;6097989;23;20209;-90
2022/10/16 01:51:04;;;;;;;8.10;6.80;;;13.70;99.90;;;;;;6116602;23;20184;-88
2022/10/16 01:53:32;;;;;;;9.10;7.60;;;13.70;99.90;;;;;;6114441;23;20216;-90
2022/10/16 01:56:02;;;;;;;10.13;9.23;;;13.80;99.90;;;;;;6116681;23;20472;-90
2022/10/16 01:58:34;;;;;;;8.63;7.72;;;13.90;99.90;;;;;;6079063;23;20203;-91
2022/10/16 02:04:08;;;;;;;8.95;7.65;;;13.90;99.90;;;;;;6119663;23;20222;-89
2022/10/16 02:06:37;;;;;;;10.50;7.63;;;13.80;99.90;;;;;;6088808;23;20163;-90
2022/10/16 02:09:04;;;;;;;11.77;8.00;;;13.90;99.90;;;;;;6111531;23;20226;-91
2022/10/16 02:11:40;;;;;;;8.20;7.15;;;13.80;99.90;;;;;;6085351;23;20202;-90
2022/10/16 02:14:08;;;;;;;7.10;6.40;;;14.00;99.90;;;;;;6085780;23;20216;-87
2022/10/16 02:16:42;;;;;;;7.90;7.10;;;13.90;99.90;;;;;;6089490;23;20172;-89
2022/10/16 02:19:10;;;;;;;8.18;7.25;;;13.90;99.90;;;;;;6087802;23;20175;-88
2022/10/16 02:21:59;;;;;;;12.55;8.20;;;14.00;99.90;;;;;;6062801;23;20206;-88
2022/10/16 02:24:46;;;;;;;11.35;8.43;;;14.10;99.90;;;;;;6114132;23;20174;-89
2022/10/16 02:27:33;;;;;;;7.97;7.18;;;14.10;99.90;;;;;;6098086;23;20245;-87
2022/10/16 02:30:30;;;;;;;9.98;7.82;;;14.00;99.90;;;;;;6126970;23;20204;-91
2022/10/16 02:33:01;;;;;;;11.90;8.15;;;13.90;99.90;;;;;;6102123;23;20178;-89
2022/10/16 02:35:31;;;;;;;9.18;8.35;;;13.90;99.90;;;;;;6075537;23;20205;-88
2022/10/16 02:38:01;;;;;;;8.90;8.00;;;13.90;99.90;;;;;;6112718;23;20172;-88
2022/10/16 02:40:29;;;;;;;10.10;9.20;;;13.80;99.90;;;;;;6080441;23;20193;-89
2022/10/16 02:42:58;;;;;;;15.43;8.82;;;13.70;99.90;;;;;;6078503;23;20293;-87
2022/10/16 02:45:30;;;;;;;17.02;8.60;;;13.80;99.90;;;;;;6100820;23;20249;-86
2022/10/16 02:48:00;;;;;;;9.80;8.90;;;13.80;99.90;;;;;;6077621;23;20186;-88
2022/10/16 02:50:27;;;;;;;8.77;7.97;;;13.80;99.90;;;;;;6076207;23;20214;-88
2022/10/16 02:52:54;;;;;;;11.70;8.32;;;13.80;99.90;;;;;;6102302;23;20175;-89
2022/10/16 02:55:31;;;;;;;11.07;8.60;;;13.80;99.90;;;;;;6100057;23;20187;-88
2022/10/16 02:57:59;;;;;;;14.35;9.55;;;13.70;99.90;;;;;;6076960;23;20208;-87
2022/10/16 03:00:28;;;;;;;14.35;10.70;;;13.70;99.90;;;;;;6077503;23;20467;-86
2022/10/16 03:02:55;;;;;;;11.45;8.25;;;13.70;99.90;;;;;;6078512;23;20240;-86
2022/10/16 03:05:22;;;;;;;11.38;9.02;;;13.80;99.90;;;;;;6084931;23;20198;-90
2022/10/16 03:07:52;;;;;;;9.95;8.45;;;14.00;99.90;;;;;;6088670;23;20178;-89
2022/10/16 03:10:21;;;;;;;9.38;8.27;;;14.00;99.90;;;;;;6087645;23;20362;-89
2022/10/16 03:12:51;;;;;;;12.38;8.13;;;14.00;99.90;;;;;;6078635;23;20207;-87
2022/10/16 03:15:17;;;;;;;10.90;8.32;;;14.20;99.90;;;;;;6104195;23;20200;-88
2022/10/16 03:17:45;;;;;;;10.10;7.88;;;14.30;99.90;;;;;;6083199;23;20211;-88
2022/10/16 03:20:13;;;;;;;8.82;7.78;;;14.40;99.90;;;;;;6109956;23;20246;-88
2022/10/16 03:22:41;;;;;;;10.57;9.38;;;14.40;99.90;;;;;;6084673;23;20653;-87
2022/10/16 03:25:11;;;;;;;17.27;9.27;;;14.40;99.90;;;;;;6056596;23;20455;-88
2022/10/16 03:27:39;;;;;;;9.98;8.93;;;14.50;99.90;;;;;;6079099;23;20627;-89
2022/10/16 03:30:08;;;;;;;10.18;8.70;;;14.40;99.90;;;;;;6077991;23;20210;-89
2022/10/16 03:32:36;;;;;;;12.38;11.18;;;14.30;99.90;;;;;;6080841;23;20182;-91
2022/10/16 03:35:04;;;;;;;9.18;8.25;;;14.20;99.90;;;;;;6080234;23;20439;-89
2022/10/16 03:37:32;;;;;;;10.68;7.93;;;14.30;99.90;;;;;;6078430;23;20183;-90
2022/10/16 03:39:59;;;;;;;9.03;8.00;;;14.40;99.90;;;;;;6077013;23;20479;-87
2022/10/16 03:42:26;;;;;;;9.65;8.65;;;14.30;99.90;;;;;;6076262;23;20838;-87
2022/10/16 03:44:56;;;;;;;8.85;7.97;;;14.30;99.90;;;;;;6101760;23;20176;-90
2022/10/16 03:47:23;;;;;;;9.75;8.57;;;14.40;99.90;;;;;;6101910;23;20198;-89
2022/10/16 03:49:51;;;;;;;8.27;7.40;;;14.30;99.90;;;;;;6076185;23;20541;-86
2022/10/16 03:52:19;;;;;;;16.33;8.87;;;14.50;99.90;;;;;;6100924;23;20237;-91
2022/10/16 03:54:46;;;;;;;7.65;6.95;;;14.50;99.90;;;;;;6077904;23;20400;-86
2022/10/16 03:57:13;;;;;;;9.52;8.48;;;14.40;99.90;;;;;;6103157;23;20180;-87
2022/10/16 03:59:40;;;;;;;10.43;8.52;;;14.30;99.90;;;;;;6080428;23;20391;-88
2022/10/16 04:02:09;;;;;;;8.48;7.55;;;14.30;99.90;;;;;;6103986;23;20223;-88
2022/10/16 04:04:38;;;;;;;9.57;7.68;;;14.30;99.90;;;;;;6102455;23;20183;-88
2022/10/16 04:07:05;;;;;;;9.88;8.85;;;14.30;99.90;;;;;;6053476;23;20189;-90
2022/10/16 04:09:39;;;;;;;9.02;8.13;;;14.30;99.90;;;;;;6102168;23;20231;-88
2022/10/16 04:12:06;;;;;;;8.95;8.05;;;14.40;99.90;;;;;;6104994;23;20192;-90
2022/10/16 04:14:36;;;;;;;8.57;7.35;;;14.20;99.90;;;;;;6092443;23;20195;-85
2022/10/16 04:17:05;;;;;;;8.88;7.97;;;14.10;99.90;;;;;;6115545;23;20168;-90
2022/10/16 04:19:35;;;;;;;9.85;8.75;;;14.10;99.90;;;;;;6119654;23;20515;-90
2022/10/16 04:22:13;;;;;;;13.30;10.38;;;14.00;99.90;;;;;;6115884;23;20181;-91
2022/10/16 04:24:41;;;;;;;9.48;7.50;;;14.00;99.90;;;;;;6083809;23;20177;-89
2022/10/16 04:27:12;;;;;;;11.45;8.82;;;13.90;99.90;;;;;;6104672;23;20232;-87
2022/10/16 04:29:44;;;;;;;14.23;8.63;;;13.90;99.90;;;;;;6079457;23;20221;-88
2022/10/16 04:32:12;;;;;;;13.82;9.05;;;13.90;99.90;;;;;;6083729;23;20195;-88
2022/10/16 04:34:52;;;;;;;12.90;11.55;;;13.80;99.90;;;;;;6082400;23;20229;-90
2022/10/16 04:37:24;;;;;;;15.77;12.35;;;13.80;99.90;;;;;;6055052;23;20176;-89
2022/10/16 04:39:52;;;;;;;17.35;11.80;;;13.80;99.90;;;;;;6079402;23;20226;-90
2022/10/16 04:42:21;;;;;;;12.20;10.25;;;13.90;99.90;;;;;;6105085;23;20216;-91
2022/10/16 04:44:50;;;;;;;15.73;11.90;;;13.90;99.90;;;;;;6104107;23;20191;-88
2022/10/16 04:47:17;;;;;;;15.05;12.00;;;13.70;99.90;;;;;;6083386;23;20370;-87
2022/10/16 04:49:44;;;;;;;18.38;14.00;;;13.60;99.90;;;;;;6078749;23;20448;-87
2022/10/16 04:52:12;;;;;;;12.20;10.18;;;13.60;99.90;;;;;;6080937;23;20225;-88
2022/10/16 04:54:44;;;;;;;16.58;12.73;;;13.70;99.90;;;;;;6080253;23;20191;-87
2022/10/16 04:57:14;;;;;;;14.75;12.60;;;13.70;99.90;;;;;;6078846;23;20205;-89
2022/10/16 04:59:41;;;;;;;17.27;13.90;;;13.80;99.90;;;;;;6107966;23;20195;-90
2022/10/16 05:02:09;;;;;;;19.00;12.07;;;13.80;99.90;;;;;;6081780;23;20764;-88
2022/10/16 05:04:38;;;;;;;18.13;12.70;;;13.70;99.90;;;;;;6104187;23;20190;-84
2022/10/16 05:07:05;;;;;;;16.10;12.73;;;13.80;99.90;;;;;;6054391;23;20486;-86
2022/10/16 05:09:39;;;;;;;13.77;11.18;;;13.80;99.90;;;;;;6079032;23;20184;-85
2022/10/16 05:12:07;;;;;;;15.13;12.45;;;13.70;99.90;;;;;;6080437;23;20623;-85
2022/10/16 05:14:40;;;;;;;13.90;10.65;;;13.70;99.90;;;;;;6061728;23;20282;-86
2022/10/16 05:17:10;;;;;;;13.00;10.95;;;13.70;99.90;;;;;;6079527;23;20218;-88
2022/10/16 05:19:39;;;;;;;12.98;9.30;;;13.80;99.90;;;;;;6078293;23;20747;-87
2022/10/16 05:22:07;;;;;;;13.90;11.55;;;13.70;99.90;;;;;;6102452;23;20190;-88
2022/10/16 05:24:36;;;;;;;14.10;12.57;;;13.60;99.90;;;;;;6102337;23;20203;-87
2022/10/16 05:27:04;;;;;;;10.20;9.15;;;13.60;99.90;;;;;;6077493;23;20249;-88
2022/10/16 05:29:35;;;;;;;11.73;10.50;;;13.60;99.90;;;;;;6102580;23;20203;-89
2022/10/16 05:32:03;;;;;;;10.95;8.93;;;13.60;99.90;;;;;;6105005;23;20186;-89
2022/10/16 05:34:30;;;;;;;11.63;9.00;;;13.60;99.90;;;;;;6081373;23;20209;-87
2022/10/16 05:37:00;;;;;;;9.55;8.63;;;13.60;99.90;;;;;;6084315;23;20174;-89
2022/10/16 05:39:28;;;;;;;8.95;8.05;;;13.60;99.90;;;;;;6083962;23;20197;-86
2022/10/16 05:42:11;;;;;;;9.55;8.55;;;13.70;99.90;;;;;;6080885;23;20493;-89
2022/10/16 05:44:42;;;;;;;11.43;9.85;;;13.90;99.90;;;;;;6083543;23;20218;-90
2022/10/16 05:47:12;;;;;;;8.90;8.00;;;14.10;99.90;;;;;;6109721;23;20234;-89
2022/10/16 05:49:44;;;;;;;9.52;7.68;;;14.20;99.90;;;;;;6062131;23;20182;-88
2022/10/16 05:52:44;;;;;;;13.18;9.05;;;14.30;99.90;;;;;;6089398;23;20205;-88
2022/10/16 05:55:23;;;;;;;12.38;9.10;;;14.40;99.90;;;;;;6106711;23;20188;-87
2022/10/16 05:57:56;;;;;;;9.48;7.47;;;14.40;99.90;;;;;;6079876;23;20210;-87
2022/10/16 06:00:25;;;;;;;9.57;7.95;;;14.60;99.90;;;;;;6080493;23;20181;-88
2022/10/16 06:02:58;;;;;;;9.48;7.07;;;14.60;99.90;;;;;;6082822;23;20173;-89
2022/10/16 06:05:26;;;;;;;10.68;7.68;;;14.60;99.90;;;;;;6083081;23;20176;-87
2022/10/16 06:07:56;;;;;;;8.10;6.88;;;14.70;99.90;;;;;;6082520;23;20233;-86
2022/10/16 06:10:28;;;;;;;6.10;5.50;;;14.80;99.90;;;;;;6099986;23;20206;-89
2022/10/16 06:12:57;;;;;;;7.63;6.93;;;14.80;99.90;;;;;;6078601;23;20419;-87
2022/10/16 06:15:26;;;;;;;8.37;7.17;;;14.90;99.90;;;;;;6103346;23;20473;-90
2022/10/16 06:17:54;;;;;;;7.20;6.33;;;15.10;99.90;;;;;;6090272;23;20418;-87
2022/10/16 06:20:21;;;;;;;6.95;5.65;;;15.00;99.90;;;;;;6106771;23;20443;-88
2022/10/16 06:22:48;;;;;;;7.17;6.50;;;14.90;99.90;;;;;;6082384;23;20187;-90
2022/10/16 06:25:16;;;;;;;6.73;5.83;;;15.00;99.90;;;;;;6059783;23;20407;-89
2022/10/16 06:27:45;;;;;;;6.60;5.90;;;15.00;99.90;;;;;;6109528;23;20407;-88
2022/10/16 06:30:22;;;;;;;6.60;5.90;;;15.00;99.90;;;;;;6063050;23;20445;-86
2022/10/16 06:32:49;;;;;;;10.87;6.20;;;15.10;99.90;;;;;;6083562;23;20434;-86
2022/10/16 06:35:18;;;;;;;9.18;6.13;;;15.20;99.90;;;;;;6083514;23;20412;-86
2022/10/16 06:37:50;;;;;;;7.20;6.57;;;15.30;99.90;;;;;;6084766;23;20307;-89
2022/10/16 06:42:55;;;;;;;7.67;6.53;;;15.60;99.90;;;;;;6133367;22;20471;-87
2022/10/16 06:45:25;;;;;;;7.07;6.33;;;15.60;99.90;;;;;;6108874;23;20413;-86
2022/10/16 06:47:53;;;;;;;5.30;4.80;;;15.80;99.90;;;;;;6083504;23;20404;-86
2022/10/16 06:50:21;;;;;;;6.50;5.70;;;15.80;99.90;;;;;;6132164;23;20206;-84
2022/10/16 06:52:49;;;;;;;5.87;5.37;;;16.10;99.90;;;;;;6133720;23;20408;-86
2022/10/16 06:55:16;;;;;;;7.10;6.33;;;16.10;99.90;;;;;;6133757;22;20404;-88
2022/10/16 06:57:47;;;;;;;5.40;4.90;;;16.20;99.90;;;;;;6110087;23;20416;-88
2022/10/16 07:00:15;;;;;;;5.27;4.77;;;16.20;99.90;;;;;;6107561;23;20460;-85
2022/10/16 07:02:46;;;;;;;5.30;4.80;;;16.20;99.90;;;;;;6133593;23;20424;-86
2022/10/16 07:05:13;;;;;;;7.10;5.73;;;16.20;99.90;;;;;;6106139;23;20216;-88
2022/10/16 07:07:47;;;;;;;10.07;6.22;;;16.30;99.90;;;;;;6108527;23;20396;-88
2022/10/16 07:10:18;;;;;;;8.27;5.33;;;16.40;99.90;;;;;;6139230;23;20203;-89
2022/10/16 07:12:48;;;;;;;7.23;6.53;;;16.40;99.90;;;;;;6141526;22;20426;-87
2022/10/16 07:15:17;;;;;;;8.63;5.50;;;16.40;99.90;;;;;;6143546;22;20395;-90
2022/10/16 07:17:45;;;;;;;8.07;5.47;;;16.50;99.90;;;;;;6125689;22;20408;-87
2022/10/16 07:20:18;;;;;;;4.80;4.30;;;16.60;99.90;;;;;;6149877;22;20381;-83
2022/10/16 07:22:47;;;;;;;4.43;4.03;;;16.70;99.90;;;;;;6147999;22;20376;-84
2022/10/16 07:25:15;;;;;;;5.28;4.78;;;16.60;99.90;;;;;;6143901;22;20433;-83
2022/10/16 07:27:42;;;;;;;4.28;3.88;;;16.50;99.90;;;;;;6108307;23;20186;-82
2022/10/16 07:30:13;;;;;;;4.30;3.90;;;16.50;99.90;;;;;;6133279;23;20258;-86
2022/10/16 07:32:55;;;;;;;7.60;4.90;;;16.50;99.90;;;;;;6133876;23;20383;-81
2022/10/16 07:35:22;;;;;;;5.03;4.00;;;16.50;99.90;;;;;;6132704;23;20623;-84
2022/10/16 07:37:49;;;;;;;5.37;4.87;;;16.60;99.90;;;;;;6131548;23;20399;-82
2022/10/16 07:40:19;;;;;;;3.53;3.17;;;16.80;99.90;;;;;;6106160;23;20411;-82
2022/10/16 07:42:53;;;;;;;3.30;3.00;;;16.80;99.90;;;;;;6131738;23;20427;-83
2022/10/16 07:45:21;;;;;;;5.17;3.87;;;16.90;99.90;;;;;;6132991;23;20408;-84
2022/10/16 07:48:04;;;;;;;4.90;3.80;;;17.00;99.90;;;;;;6135284;23;20411;-84
2022/10/16 07:50:34;;;;;;;3.93;3.63;;;17.10;99.90;;;;;;6133078;23;20571;-81
2022/10/16 07:53:01;;;;;;;5.10;3.83;;;17.10;99.90;;;;;;6112244;22;20404;-83
2022/10/16 07:55:29;;;;;;;4.43;4.03;;;17.10;99.90;;;;;;6148404;23;20435;-82
2022/10/16 07:57:56;;;;;;;4.17;3.30;;;17.30;99.90;;;;;;6123561;23;20407;-84
2022/10/16 08:00:24;;;;;;;4.87;3.90;;;17.50;99.90;;;;;;6117263;23;20687;-82
2022/10/16 08:02:53;;;;;;;5.30;3.10;;;17.70;99.90;;;;;;6108640;23;20404;-82
2022/10/16 08:05:29;;;;;;;5.57;3.60;;;17.80;99.90;;;;;;6132868;23;20457;-82
2022/10/16 08:07:57;;;;;;;3.47;3.20;;;18.10;99.90;;;;;;6133122;23;20379;-83
2022/10/16 08:10:26;;;;;;;3.20;2.90;;;18.30;99.90;;;;;;6107875;23;20431;-82
2022/10/16 08:12:59;;;;;;;3.20;2.90;;;18.40;99.90;;;;;;6135848;23;20355;-83
2022/10/16 08:15:27;;;;;;;4.20;3.10;;;18.50;99.90;;;;;;6107377;23;20396;-85
2022/10/16 08:17:59;;;;;;;3.80;3.50;;;18.80;99.90;;;;;;6108140;23;20391;-81
2022/10/16 08:20:28;;;;;;;3.43;3.13;;;19.00;99.90;;;;;;6133496;23;20663;-82
2022/10/16 08:22:57;;;;;;;5.37;3.20;;;19.20;99.90;;;;;;6133907;23;20364;-82
2022/10/16 08:25:28;;;;;;;3.80;3.47;;;19.10;99.90;;;;;;6110606;23;20423;-83
2022/10/16 08:28:00;;;;;;;3.20;2.90;;;19.30;99.90;;;;;;6132349;23;20389;-83
2022/10/16 08:30:27;;;;;;;3.00;2.70;;;19.20;99.90;;;;;;6133847;23;20448;-85
2022/10/16 08:32:55;;;;;;;3.50;2.90;;;19.20;99.90;;;;;;6132774;23;20400;-81
2022/10/16 08:35:24;;;;;;;2.90;2.70;;;19.30;99.90;;;;;;6110737;23;20396;-88
2022/10/16 08:37:53;;;;;;;5.43;3.25;;;19.30;99.90;;;;;;6109690;23;20393;-86
2022/10/16 08:40:26;;;;;;;4.60;2.77;;;19.20;99.90;;;;;;6133197;23;20241;-86
2022/10/16 08:43:07;;;;;;;3.33;3.00;;;19.20;99.90;;;;;;6136002;23;20396;-83
2022/10/16 08:46:05;;;;;;;2.57;2.37;;;19.30;99.90;;;;;;6109258;23;20416;-85
2022/10/16 08:48:44;;;;;;;3.00;2.70;;;19.40;99.90;;;;;;6136889;23;20451;-85
2022/10/16 08:51:19;;;;;;;8.20;3.20;;;19.50;99.90;;;;;;6111403;23;20187;-86
2022/10/16 08:54:04;;;;;;;4.20;3.47;;;19.60;99.90;;;;;;6137607;23;20370;-85
2022/10/16 08:56:31;;;;;;;3.03;2.73;;;19.80;99.90;;;;;;6132932;23;20643;-87
2022/10/16 08:58:59;;;;;;;3.50;3.03;;;20.20;99.90;;;;;;6115474;23;20414;-83
2022/10/16 09:01:42;;;;;;;3.00;2.70;;;20.10;99.90;;;;;;6140599;23;20379;-83
2022/10/16 09:04:28;;;;;;;4.30;2.87;;;20.30;99.90;;;;;;6114278;23;20352;-85
2022/10/16 09:07:03;;;;;;;4.30;2.47;;;20.40;99.90;;;;;;6137671;23;20375;-84
2022/10/16 09:09:52;;;;;;;3.10;2.80;;;20.80;99.90;;;;;;6137614;23;20377;-85
2022/10/16 09:12:37;;;;;;;3.40;3.03;;;21.00;99.90;;;;;;6112848;23;20397;-85
2022/10/16 09:15:15;;;;;;;4.13;3.57;;;21.20;99.90;;;;;;6138417;23;20393;-88
2022/10/16 09:18:24;;;;;;;3.90;3.07;;;21.20;99.90;;;;;;6136390;23;20355;-89
2022/10/16 09:21:38;;;;;;;3.60;3.23;;;21.10;99.90;;;;;;6113895;23;20443;-87
2022/10/16 09:24:20;;;;;;;3.50;3.20;;;20.90;99.90;;;;;;6119370;23;20427;-88
2022/10/16 09:26:54;;;;;;;3.07;2.60;;;20.80;99.90;;;;;;6113635;23;20491;-87
2022/10/16 09:29:23;;;;;;;3.67;3.27;;;21.10;99.90;;;;;;6111858;23;20457;-87
2022/10/16 09:31:54;;;;;;;3.03;2.83;;;21.10;99.90;;;;;;6090017;23;20460;-86
2022/10/16 09:34:28;;;;;;;3.27;2.97;;;20.80;99.90;;;;;;6136393;23;20420;-83
2022/10/16 09:36:58;;;;;;;3.47;2.30;;;20.70;99.90;;;;;;6131022;23;20357;-83
2022/10/16 09:39:27;;;;;;;3.43;3.13;;;20.90;99.90;;;;;;6137498;23;20425;-86
2022/10/16 09:41:56;;;;;;;3.00;2.80;;;20.90;99.90;;;;;;6134550;23;20415;-83
2022/10/16 09:44:31;;;;;;;2.80;2.60;;;21.00;99.90;;;;;;6107629;23;20414;-81
2022/10/16 09:47:06;;;;;;;3.37;3.03;;;21.10;99.90;;;;;;6133518;23;20910;-85
2022/10/16 09:49:33;;;;;;;2.67;2.47;;;21.10;99.90;;;;;;6132430;23;20410;-86
2022/10/16 09:52:10;;;;;;;5.90;5.20;;;21.40;99.90;;;;;;6132592;23;20991;-85
2022/10/16 09:54:48;;;;;;;6.13;5.33;;;21.50;99.90;;;;;;6105949;23;20395;-84
2022/10/16 09:57:17;;;;;;;6.70;6.03;;;21.50;99.90;;;;;;6106512;23;20592;-81
2022/10/16 09:59:49;;;;;;;4.40;3.60;;;21.70;99.90;;;;;;6105223;23;20612;-83
2022/10/16 10:02:26;;;;;;;4.63;4.30;;;21.60;99.90;;;;;;6105187;23;20385;-82
2022/10/16 10:04:54;;;;;;;4.10;3.70;;;21.80;99.90;;;;;;6131271;23;20443;-83
2022/10/16 10:07:34;;;;;;;3.70;3.20;;;21.80;99.90;;;;;;6131896;23;20375;-83
2022/10/16 10:10:07;;;;;;;4.87;4.40;;;21.70;99.90;;;;;;6106419;23;20401;-85
2022/10/16 10:12:36;;;;;;;3.97;3.43;;;21.40;99.90;;;;;;6131960;23;20374;-83
2022/10/16 10:15:08;;;;;;;6.27;5.67;;;21.30;99.90;;;;;;6131958;23;20727;-84
2022/10/16 10:17:47;;;;;;;4.70;2.93;;;21.30;99.90;;;;;;6131992;23;20565;-82
2022/10/16 10:20:28;;;;;;;3.30;3.07;;;21.10;99.90;;;;;;6083515;23;20921;-82
2022/10/16 10:22:57;;;;;;;6.50;3.83;;;20.90;99.90;;;;;;6107576;23;20423;-81
2022/10/16 10:25:31;;;;;;;5.00;2.83;;;20.80;99.90;;;;;;6132541;23;20441;-82
2022/10/16 10:28:20;;;;;;;3.87;3.57;;;20.60;99.90;;;;;;6138776;23;20424;-87
2022/10/16 10:31:03;;;;;;;3.50;3.20;;;20.50;99.90;;;;;;6139508;23;20424;-88
2022/10/16 10:33:49;;;;;;;6.33;2.63;;;20.30;99.90;;;;;;6115355;23;20739;-86
2022/10/16 10:36:35;;;;;;;2.97;2.60;;;20.20;99.90;;;;;;6116357;23;20382;-86
2022/10/16 10:39:28;;;;;;;4.27;3.33;;;20.20;99.90;;;;;;6142317;23;20186;-86
2022/10/16 10:42:25;;;;;;;3.10;2.90;;;20.50;99.90;;;;;;6137255;23;20418;-87
2022/10/16 10:45:22;;;;;;;3.07;2.77;;;20.70;99.90;;;;;;6110466;23;20391;-88
2022/10/16 10:48:17;;;;;;;2.60;2.40;;;20.90;99.90;;;;;;6134083;23;20380;-87
2022/10/16 10:51:23;;;;;;;4.30;3.90;;;21.20;99.90;;;;;;6136274;23;20415;-88
2022/10/16 10:53:56;;;;;;;3.30;3.00;;;21.20;99.90;;;;;;6110930;23;20381;-84
2022/10/16 10:56:52;;;;;;;3.50;2.00;;;21.40;99.90;;;;;;6137339;23;20359;-87
2022/10/16 10:59:50;;;;;;;3.22;2.60;;;21.40;99.90;;;;;;6138264;23;20367;-86
2022/10/16 11:02:53;;;;;;;2.70;2.50;;;21.50;99.90;;;;;;6135381;23;20209;-87
2022/10/16 11:05:53;;;;;;;3.03;2.40;;;21.70;99.90;;;;;;6110209;23;20412;-85
2022/10/16 11:08:55;;;;;;;2.60;2.40;;;21.90;99.90;;;;;;6134252;23;20387;-81
2022/10/16 11:11:55;;;;;;;2.78;2.58;;;22.20;99.90;;;;;;6130205;23;20450;-85
2022/10/16 11:14:31;;;;;;;5.60;5.10;;;22.10;99.90;;;;;;6134727;23;20238;-84
2022/10/16 11:17:06;;;;;;;4.40;3.97;;;22.00;99.90;;;;;;6110967;23;20192;-83
2022/10/16 11:19:45;;;;;;;3.90;3.50;;;21.80;99.90;;;;;;6133670;23;20370;-82
2022/10/16 11:22:37;;;;;;;6.63;3.53;;;21.70;99.90;;;;;;6132426;23;20362;-84
2022/10/16 11:25:19;;;;;;;2.77;2.57;;;21.40;99.90;;;;;;6108045;23;20412;-85
2022/10/16 11:28:07;;;;;;;2.60;2.40;;;21.30;99.90;;;;;;6108591;23;20401;-82
2022/10/16 11:30:50;;;;;;;3.63;3.00;;;21.10;99.90;;;;;;6146432;22;20419;-84
2022/10/16 11:33:24;;;;;;;2.83;2.63;;;20.90;99.90;;;;;;6125845;23;20428;-84
2022/10/16 11:39:35;;;;;;;2.20;2.10;;;21.20;99.90;;;;;;6136628;23;20346;-83
2022/10/16 11:42:38;;;;;;;2.30;2.10;;;21.60;99.90;;;;;;6116348;23;20578;-86
2022/10/16 11:45:39;;;;;;;1.83;1.73;;;21.60;99.90;;;;;;6099405;23;20434;-83
2022/10/16 11:48:35;;;;;;;2.20;2.10;;;21.70;99.90;;;;;;6110938;23;20428;-83
2022/10/16 11:51:31;;;;;;;10.83;2.87;;;21.90;99.90;;;;;;6111834;23;20474;-83
2022/10/16 11:54:23;;;;;;;2.70;2.50;;;22.10;99.90;;;;;;6134850;23;20398;-84
2022/10/16 11:56:56;;;;;;;7.33;4.37;;;22.20;99.90;;;;;;6134534;23;20371;-84
2022/10/16 11:59:37;;;;;;;2.70;2.50;;;22.30;99.90;;;;;;6131687;23;20355;-83
2022/10/16 12:02:33;;;;;;;3.20;2.77;;;22.40;99.90;;;;;;6128373;23;20720;-85
2022/10/16 12:05:31;;;;;;;2.40;2.20;;;22.60;99.90;;;;;;6134677;23;20379;-87
2022/10/16 12:08:10;;;;;;;2.77;2.57;;;22.50;99.90;;;;;;6135582;23;20354;-84
2022/10/16 12:10:42;;;;;;;3.50;2.93;;;22.60;99.90;;;;;;6142067;23;20442;-85
2022/10/16 12:13:43;;;;;;;2.60;2.40;;;22.70;99.90;;;;;;6125276;22;20361;-86
2022/10/16 12:16:13;;;;;;;3.33;3.10;;;22.70;99.90;;;;;;6124847;22;20399;-88
2022/10/16 12:18:47;;;;;;;2.93;2.73;;;22.90;99.90;;;;;;6146645;22;20375;-83
2022/10/16 12:21:18;;;;;;;4.83;2.60;;;22.80;99.90;;;;;;6113282;23;20394;-83
2022/10/16 12:23:54;;;;;;;3.83;3.40;;;22.80;99.90;;;;;;6110558;23;20395;-85
2022/10/16 12:26:31;;;;;;;2.77;2.57;;;22.60;99.90;;;;;;6133517;23;20350;-84
2022/10/16 12:29:27;;;;;;;3.87;3.20;;;22.50;99.90;;;;;;6133700;23;20436;-85
2022/10/16 12:31:54;;;;;;;4.10;2.90;;;22.20;99.90;;;;;;6108449;23;20454;-87
2022/10/16 12:34:48;;;;;;;5.87;4.33;;;22.00;99.90;;;;;;6135331;23;20472;-84
2022/10/16 12:37:27;;;;;;;3.83;3.53;;;22.00;99.90;;;;;;6133526;23;20435;-85
2022/10/16 12:39:57;;;;;;;6.33;3.70;;;21.90;99.90;;;;;;6135282;23;20386;-85
2022/10/16 12:42:29;;;;;;;5.13;4.63;;;21.80;99.90;;;;;;6110004;23;20721;-84
2022/10/16 12:45:00;;;;;;;6.30;5.00;;;21.60;99.90;;;;;;6134052;23;20697;-84
2022/10/16 12:47:30;;;;;;;6.40;5.40;;;21.80;99.90;;;;;;6105673;23;20613;-85
2022/10/16 12:49:58;;;;;;;6.27;5.03;;;22.00;99.90;;;;;;6104576;23;20387;-86
2022/10/16 12:52:36;;;;;;;7.13;4.22;;;22.10;99.90;;;;;;6130419;23;20414;-85
2022/10/16 12:55:16;;;;;;;7.43;5.00;;;22.10;99.90;;;;;;6107984;23;20169;-85
2022/10/16 12:58:11;;;;;;;5.50;4.77;;;22.00;99.90;;;;;;6108075;23;20379;-86
2022/10/16 13:00:57;;;;;;;5.20;4.70;;;21.90;99.90;;;;;;6131733;23;20402;-85
2022/10/16 13:04:02;;;;;;;5.17;4.70;;;22.00;99.90;;;;;;6106826;23;20417;-85
2022/10/16 13:06:44;;;;;;;5.27;4.87;;;22.00;99.90;;;;;;6132578;23;20404;-86
2022/10/16 13:09:57;;;;;;;6.00;5.20;;;22.10;99.90;;;;;;6133282;23;20711;-85
2022/10/16 13:12:47;;;;;;;4.93;4.43;;;22.10;99.90;;;;;;6125404;23;20466;-86
2022/10/16 13:15:37;;;;;;;6.13;5.50;;;22.10;99.90;;;;;;6106963;23;20398;-88
2022/10/16 13:18:13;;;;;;;4.90;4.40;;;22.00;99.90;;;;;;6110534;23;20381;-84
2022/10/16 13:21:19;;;;;;;6.87;4.80;;;22.00;99.90;;;;;;6131629;23;20380;-84
2022/10/16 13:24:15;;;;;;;5.47;4.63;;;22.00;99.90;;;;;;6132589;23;20554;-87
2022/10/16 13:27:15;;;;;;;5.10;4.60;;;22.00;99.90;;;;;;6132094;23;20377;-84
2022/10/16 13:29:42;;;;;;;4.70;4.27;;;22.00;99.90;;;;;;6133051;23;20413;-84
2022/10/16 13:32:14;;;;;;;4.50;4.10;;;22.20;99.90;;;;;;6133776;23;20474;-86
2022/10/16 13:34:46;;;;;;;6.93;6.13;;;22.20;99.90;;;;;;6106755;23;20414;-86
2022/10/16 13:37:21;;;;;;;11.43;4.57;;;22.20;99.90;;;;;;6106018;23;20458;-88
2022/10/16 13:39:50;;;;;;;5.20;4.70;;;22.20;99.90;;;;;;6133828;23;20374;-86
2022/10/16 13:42:25;;;;;;;4.40;4.00;;;22.00;99.90;;;;;;6133454;23;20185;-87